createdAt,value
2023-02-07T00:02:13.244Z,23.02
2023-02-07T00:04:41.173Z,23.48
2023-02-07T00:07:09.268Z,20.17
2023-02-07T00:19:05.006Z,17.13
2023-02-07T00:31:24.777Z,19.13
2023-02-07T00:33:55.788Z,25.35
2023-02-07T00:36:25.485Z,24.52
2023-02-07T00:43:30.050Z,19.63
2023-02-07T00:46:00.427Z,24.40
2023-02-07T00:48:30.246Z,27.67
2023-02-07T00:51:52.904Z,29.60
2023-02-07T00:54:21.379Z,22.13
2023-02-07T00:56:49.050Z,26.80
2023-02-07T00:59:22.290Z,32.03
2023-02-07T01:01:50.342Z,23.33
2023-02-07T01:04:18.391Z,30.08
2023-02-07T01:20:46.864Z,25.67
2023-02-07T01:23:15.644Z,22.00
2023-02-07T01:25:45.173Z,28.45
2023-02-07T01:28:14.888Z,24.40
2023-02-07T01:30:44.627Z,21.93
2023-02-07T01:33:13.011Z,19.88
2023-02-07T01:35:41.761Z,23.77
2023-02-07T01:38:09.922Z,25.25
2023-02-07T01:40:38.692Z,21.48
2023-02-07T01:43:08.011Z,26.57
2023-02-07T01:45:38.757Z,24.73
2023-02-07T01:48:35.866Z,25.80
2023-02-07T01:51:07.232Z,22.55
2023-02-07T01:53:37.901Z,27.08
2023-02-07T01:56:17.652Z,27.33
2023-02-07T02:06:49.479Z,27.30
2023-02-07T02:09:17.948Z,22.65
2023-02-07T02:12:08.844Z,29.73
2023-02-07T02:15:04.726Z,26.23
2023-02-07T02:17:52.730Z,24.63
2023-02-07T02:20:54.377Z,31.48
2023-02-07T02:24:14.899Z,33.92
2023-02-07T02:27:01.452Z,29.93
2023-02-07T02:37:29.147Z,26.92
2023-02-07T02:40:22.284Z,28.40
2023-02-07T02:43:08.405Z,29.53
2023-02-07T02:45:53.065Z,31.08
2023-02-07T02:48:21.810Z,31.23
2023-02-07T02:50:52.110Z,29.08
2023-02-07T02:53:22.177Z,24.23
2023-02-07T03:05:52.626Z,19.65
2023-02-07T03:12:27.906Z,22.38
2023-02-07T03:19:43.150Z,20.98
2023-02-07T03:22:15.392Z,23.58
2023-02-07T03:28:11.903Z,18.92
2023-02-07T03:30:45.413Z,29.77
2023-02-07T03:34:52.655Z,46.97
2023-02-07T03:40:49.763Z,31.02
2023-02-07T03:47:07.694Z,33.47
2023-02-07T03:49:35.734Z,24.00
2023-02-07T03:52:04.930Z,29.55
2023-02-07T03:54:32.968Z,28.27
2023-02-07T03:57:00.619Z,31.63
2023-02-07T03:59:29.877Z,35.00
2023-02-07T04:01:57.776Z,37.05
2023-02-07T04:04:29.344Z,40.78
2023-02-07T04:06:57.131Z,35.55
2023-02-07T04:09:51.296Z,29.05
2023-02-07T04:12:19.478Z,36.80
2023-02-07T04:14:47.460Z,31.85
2023-02-07T04:17:15.308Z,37.17
2023-02-07T04:19:54.061Z,30.42
2023-02-07T04:22:22.018Z,37.67
2023-02-07T04:24:50.133Z,31.97
2023-02-07T04:27:18.096Z,35.45
2023-02-07T04:29:46.200Z,30.45
2023-02-07T04:41:20.058Z,26.17
2023-02-07T04:43:47.850Z,34.65
2023-02-07T04:46:15.914Z,44.63
2023-02-07T04:48:51.326Z,36.03
2023-02-07T04:51:20.619Z,52.75
2023-02-07T04:57:56.380Z,42.30
2023-02-07T05:00:24.062Z,47.53
2023-02-07T05:03:18.202Z,48.97
2023-02-07T05:05:49.295Z,48.72
2023-02-07T05:08:17.630Z,39.33
2023-02-07T05:15:18.357Z,43.97
2023-02-07T05:17:46.811Z,39.97
2023-02-07T05:25:05.481Z,25.23
2023-02-07T05:32:24.251Z,40.42
2023-02-07T05:39:52.785Z,41.20
2023-02-07T05:42:20.879Z,42.47
2023-02-07T05:44:49.194Z,54.17
2023-02-07T05:52:19.783Z,43.55
2023-02-07T05:54:48.265Z,85.13
2023-02-07T05:57:18.444Z,82.20
2023-02-07T05:59:46.612Z,43.22
2023-02-07T06:02:23.273Z,46.00
2023-02-07T06:04:51.589Z,48.33
2023-02-07T06:07:20.175Z,59.97
2023-02-07T06:09:48.374Z,39.20
2023-02-07T06:12:16.637Z,30.70
2023-02-07T06:14:44.937Z,30.88
2023-02-07T06:17:13.130Z,26.00
2023-02-07T06:19:41.445Z,28.75
2023-02-07T06:22:09.899Z,32.77
2023-02-07T06:24:38.239Z,42.72
2023-02-07T06:27:06.680Z,41.55
2023-02-07T06:29:35.066Z,43.10
2023-02-07T06:32:03.638Z,55.95
2023-02-07T06:34:31.842Z,38.87
2023-02-07T06:37:00.091Z,40.30
2023-02-07T06:39:28.200Z,35.80
2023-02-07T06:41:56.453Z,35.35
2023-02-07T06:44:24.546Z,27.40
2023-02-07T06:46:52.928Z,37.13
2023-02-07T06:49:21.146Z,53.85
2023-02-07T06:51:50.439Z,39.33
2023-02-07T06:54:18.809Z,31.88
2023-02-07T06:56:47.472Z,34.22
2023-02-07T06:59:15.752Z,31.07
2023-02-07T07:01:49.522Z,30.50
2023-02-07T07:04:18.951Z,33.88
2023-02-07T07:06:47.796Z,29.13
2023-02-07T07:09:15.762Z,44.67
2023-02-07T07:12:59.716Z,40.03
2023-02-07T07:15:27.945Z,30.23
2023-02-07T07:22:36.213Z,19.52
2023-02-07T07:25:10.307Z,26.83
2023-02-07T07:27:42.007Z,28.27
2023-02-07T07:31:24.890Z,25.38
2023-02-07T07:33:56.490Z,30.38
2023-02-07T07:36:34.402Z,33.63
2023-02-07T07:39:11.665Z,31.33
2023-02-07T07:41:43.700Z,30.70
2023-02-07T07:44:38.687Z,31.25
2023-02-07T07:47:14.659Z,27.02
2023-02-07T07:49:51.198Z,32.28
2023-02-07T07:52:19.914Z,31.83
2023-02-07T07:54:48.217Z,35.70
2023-02-07T07:57:16.617Z,37.25
2023-02-07T07:59:50.386Z,31.05
2023-02-07T08:02:19.127Z,32.65
2023-02-07T08:04:49.144Z,30.30
2023-02-07T08:07:37.174Z,28.47
2023-02-07T08:10:18.077Z,36.05
2023-02-07T08:12:46.182Z,29.85
2023-02-07T08:15:15.345Z,32.70
2023-02-07T08:17:43.699Z,41.25
2023-02-07T08:20:15.781Z,43.83
2023-02-07T08:22:43.904Z,56.88
2023-02-07T08:25:12.430Z,42.58
2023-02-07T08:27:40.876Z,45.15
2023-02-07T08:30:11.738Z,48.35
2023-02-07T08:32:40.994Z,40.10
2023-02-07T08:35:10.398Z,41.30
2023-02-07T08:37:39.463Z,43.22
2023-02-07T08:40:08.669Z,40.92
2023-02-07T08:42:36.860Z,35.20
2023-02-07T08:45:06.238Z,29.40
2023-02-07T08:47:34.865Z,27.42
2023-02-07T08:50:09.679Z,29.35
2023-02-07T08:52:38.548Z,32.88
2023-02-07T08:55:08.174Z,29.40
2023-02-07T08:57:36.846Z,34.23
2023-02-07T09:00:08.460Z,43.33
2023-02-07T09:02:37.057Z,34.60
2023-02-07T09:05:06.269Z,32.25
2023-02-07T09:07:34.988Z,31.02
2023-02-07T09:10:14.875Z,27.87
2023-02-07T09:12:46.406Z,38.55
2023-02-07T09:19:19.557Z,34.67
2023-02-07T09:21:52.641Z,38.25
2023-02-07T09:24:24.868Z,28.43
2023-02-07T09:27:04.933Z,35.45
2023-02-07T09:29:35.971Z,37.42
2023-02-07T09:32:07.254Z,28.65
2023-02-07T09:34:35.953Z,26.65
2023-02-07T09:37:04.685Z,28.60
2023-02-07T09:39:33.927Z,26.42
2023-02-07T09:42:24.321Z,28.08
2023-02-07T09:45:02.950Z,27.08
2023-02-07T09:47:34.603Z,29.35
2023-02-07T09:50:23.837Z,29.70
2023-02-07T09:53:23.664Z,24.80
2023-02-07T09:55:56.717Z,22.52
2023-02-07T09:58:32.141Z,27.15
2023-02-07T10:01:23.863Z,29.25
2023-02-07T10:04:27.237Z,25.53
2023-02-07T10:07:00.849Z,25.70
2023-02-07T10:09:48.298Z,29.42
2023-02-07T10:17:31.090Z,22.02
2023-02-07T10:20:20.006Z,28.30
2023-02-07T10:23:24.142Z,29.25
2023-02-07T10:26:17.203Z,34.22
2023-02-07T10:29:16.069Z,24.90
2023-02-07T10:31:49.087Z,25.55
2023-02-07T10:34:35.249Z,30.73
2023-02-07T10:37:22.215Z,29.38
2023-02-07T10:40:06.331Z,31.42
2023-02-07T10:42:37.953Z,35.15
2023-02-07T10:45:07.091Z,32.22
2023-02-07T10:47:40.432Z,30.37
2023-02-07T10:50:29.309Z,30.83
2023-02-07T10:53:02.831Z,28.88
2023-02-07T10:55:56.321Z,29.67
2023-02-07T10:59:16.967Z,28.85
2023-02-07T11:02:00.035Z,25.27
2023-02-07T11:08:36.498Z,26.15
2023-02-07T11:16:09.060Z,24.88
2023-02-07T11:18:59.568Z,42.23
2023-02-07T11:25:48.744Z,20.85
2023-02-07T11:37:33.261Z,21.67
2023-02-07T11:40:21.940Z,41.92
2023-02-07T11:43:02.665Z,31.05
2023-02-07T11:45:35.062Z,28.30
2023-02-07T11:48:17.418Z,21.38
2023-02-07T11:54:20.857Z,24.52
2023-02-07T11:56:56.027Z,14.65
2023-02-07T12:03:30.357Z,14.05
2023-02-07T12:06:06.096Z,13.97
2023-02-07T12:08:47.722Z,14.07
2023-02-07T12:16:10.027Z,13.73
2023-02-07T12:19:05.901Z,16.17
2023-02-07T12:26:33.820Z,18.10
2023-02-07T12:29:44.871Z,14.43
2023-02-07T12:33:19.414Z,18.42
2023-02-07T12:40:52.601Z,41.83
2023-02-07T12:43:25.743Z,23.27
2023-02-07T12:47:05.519Z,19.55
2023-02-07T12:54:15.238Z,17.00
2023-02-07T12:57:08.484Z,30.27
2023-02-07T13:07:39.402Z,20.52
2023-02-07T13:10:56.988Z,16.77
2023-02-07T13:14:13.424Z,15.83
2023-02-07T13:17:29.640Z,18.13
2023-02-07T13:23:31.262Z,17.33
2023-02-07T13:26:52.525Z,16.23
2023-02-07T13:29:23.964Z,23.17
2023-02-07T13:32:19.793Z,16.58
2023-02-07T13:35:01.347Z,15.27
2023-02-07T13:38:15.829Z,20.20
2023-02-07T13:41:01.367Z,15.93
2023-02-07T13:43:32.468Z,19.47
2023-02-07T13:46:23.720Z,15.20
2023-02-07T13:49:00.640Z,17.70
2023-02-07T13:51:53.734Z,15.80
2023-02-07T13:54:42.474Z,20.50
2023-02-07T13:57:51.906Z,14.07
2023-02-07T14:00:24.280Z,16.17
2023-02-07T14:03:03.975Z,18.98
2023-02-07T14:05:39.905Z,17.73
2023-02-07T14:08:25.305Z,17.92
2023-02-07T14:10:57.800Z,18.10
2023-02-07T14:13:31.144Z,17.08
2023-02-07T14:16:04.348Z,18.00
2023-02-07T14:18:40.780Z,17.60
2023-02-07T14:21:21.761Z,19.00
2023-02-07T14:24:25.567Z,23.83
2023-02-07T14:27:01.805Z,21.67
2023-02-07T14:29:29.810Z,23.33
2023-02-07T14:32:17.162Z,23.27
2023-02-07T14:35:07.270Z,25.27
2023-02-07T14:38:09.114Z,37.70
2023-02-07T14:40:45.283Z,57.20
2023-02-07T14:43:13.555Z,41.55
2023-02-07T14:45:52.909Z,48.50
2023-02-07T14:48:46.369Z,34.45
2023-02-07T14:51:19.650Z,22.20
2023-02-07T14:54:00.835Z,19.77
2023-02-07T14:56:51.624Z,20.10
2023-02-07T14:59:30.009Z,38.03
2023-02-07T15:01:58.131Z,31.55
2023-02-07T15:04:26.554Z,26.73
2023-02-07T15:06:55.170Z,22.73
2023-02-07T15:09:28.249Z,19.55
2023-02-07T15:12:18.737Z,21.95
2023-02-07T15:14:57.640Z,22.73
2023-02-07T15:17:39.302Z,22.27
2023-02-07T15:20:17.561Z,24.75
2023-02-07T15:22:55.409Z,27.42
2023-02-07T15:25:25.377Z,22.67
2023-02-07T15:28:27.908Z,22.67
2023-02-07T15:31:16.769Z,20.90
2023-02-07T15:33:48.068Z,17.95
2023-02-07T15:36:39.223Z,22.00
2023-02-07T15:39:15.586Z,22.75
2023-02-07T15:41:49.872Z,21.50
2023-02-07T15:44:22.602Z,24.77
2023-02-07T15:47:02.311Z,21.80
2023-02-07T15:49:43.240Z,20.95
2023-02-07T15:52:37.997Z,21.90
2023-02-07T15:55:38.462Z,23.35
2023-02-07T15:58:07.159Z,23.23
2023-02-07T16:00:40.761Z,24.23
2023-02-07T16:03:39.948Z,29.58
2023-02-07T16:06:22.343Z,21.00
2023-02-07T16:08:54.132Z,26.98
2023-02-07T16:11:28.293Z,26.63
2023-02-07T16:14:25.497Z,37.53
2023-02-07T16:16:56.327Z,37.42
2023-02-07T16:19:28.784Z,27.65
2023-02-07T16:22:13.788Z,29.13
2023-02-07T16:24:57.104Z,23.13
2023-02-07T16:27:39.342Z,30.42
2023-02-07T16:30:57.508Z,26.80
2023-02-07T16:37:50.329Z,35.28
2023-02-07T16:40:19.633Z,43.43
2023-02-07T16:42:47.995Z,47.08
2023-02-07T16:45:20.545Z,41.28
2023-02-07T16:47:49.443Z,39.42
2023-02-07T16:50:26.574Z,37.80
2023-02-07T16:52:58.744Z,42.97
2023-02-07T16:55:28.867Z,43.67
2023-02-07T16:58:24.987Z,43.10
2023-02-07T17:00:54.451Z,37.33
2023-02-07T17:03:23.662Z,40.95
2023-02-07T17:05:52.213Z,45.33
2023-02-07T17:11:27.831Z,38.33
2023-02-07T17:13:57.354Z,34.63
2023-02-07T17:16:27.706Z,34.97
2023-02-07T17:18:55.932Z,38.83
2023-02-07T17:21:24.972Z,50.58
2023-02-07T17:23:52.914Z,39.95
2023-02-07T17:26:25.434Z,39.10
2023-02-07T17:28:54.812Z,36.13
2023-02-07T17:31:24.652Z,32.87
2023-02-07T17:33:53.099Z,29.17
2023-02-07T17:36:22.000Z,30.13
2023-02-07T17:38:50.294Z,26.83
2023-02-07T17:41:20.604Z,23.50
2023-02-07T17:43:48.860Z,24.47
2023-02-07T17:46:20.068Z,23.52
2023-02-07T17:48:49.560Z,27.00
2023-02-07T17:51:21.314Z,25.70
2023-02-07T17:53:49.242Z,28.30
2023-02-07T17:56:24.282Z,27.23
2023-02-07T17:58:54.661Z,28.70
2023-02-07T18:01:24.394Z,24.35
2023-02-07T18:03:54.517Z,27.13
2023-02-07T18:06:27.010Z,24.77
2023-02-07T18:08:59.039Z,23.90
2023-02-07T18:11:28.484Z,28.23
2023-02-07T18:13:59.428Z,22.08
2023-02-07T18:16:28.302Z,19.08
2023-02-07T18:18:58.358Z,28.75
2023-02-07T18:21:27.188Z,32.43
2023-02-07T18:23:55.112Z,43.10
2023-02-07T18:26:24.109Z,37.95
2023-02-07T18:28:52.833Z,31.35
2023-02-07T18:31:24.497Z,28.05
2023-02-07T18:33:54.297Z,28.77
2023-02-07T18:36:24.272Z,35.42
2023-02-07T18:38:53.354Z,45.45
2023-02-07T18:41:26.965Z,34.38
2023-02-07T18:43:54.922Z,31.67
2023-02-07T18:46:23.261Z,34.90
2023-02-07T18:48:55.840Z,30.23
2023-02-07T18:51:24.924Z,27.83
2023-02-07T18:53:55.372Z,28.35
2023-02-07T18:56:25.836Z,30.67
2023-02-07T18:58:56.948Z,32.80
2023-02-07T19:01:28.215Z,29.15
2023-02-07T19:03:58.559Z,30.95
2023-02-07T19:06:28.992Z,32.03
2023-02-07T19:08:57.643Z,25.67
2023-02-07T19:11:27.029Z,43.80
2023-02-07T19:13:58.308Z,24.70
2023-02-07T19:16:26.800Z,37.05
2023-02-07T19:18:59.038Z,43.22
2023-02-07T19:21:27.441Z,35.33
2023-02-07T19:24:02.471Z,30.67
2023-02-07T19:26:30.767Z,30.88
2023-02-07T19:28:59.322Z,27.42
2023-02-07T19:31:31.262Z,28.48
2023-02-07T19:34:00.428Z,27.77
2023-02-07T19:36:30.669Z,35.37
2023-02-07T19:38:59.786Z,38.00
2023-02-07T19:41:29.625Z,34.38
2023-02-07T19:43:57.972Z,33.72
2023-02-07T19:46:26.827Z,31.92
2023-02-07T19:48:57.757Z,36.30
2023-02-07T19:51:33.253Z,28.38
2023-02-07T19:54:05.193Z,29.35
2023-02-07T19:56:34.277Z,46.83
2023-02-07T19:59:04.938Z,43.72
2023-02-07T20:01:35.893Z,37.53
2023-02-07T20:04:05.996Z,32.40
2023-02-07T20:06:35.461Z,35.00
2023-02-07T20:09:05.907Z,26.75
2023-02-07T20:11:35.123Z,33.20
2023-02-07T20:14:03.847Z,57.30
2023-02-07T20:16:35.163Z,45.67
2023-02-07T20:19:06.136Z,44.83
2023-02-07T20:21:36.240Z,35.50
2023-02-07T20:24:05.210Z,38.60
2023-02-07T20:26:40.120Z,26.17
2023-02-07T20:29:12.061Z,26.40
2023-02-07T20:31:42.068Z,29.98
2023-02-07T20:34:10.471Z,22.42
2023-02-07T20:36:42.075Z,25.23
2023-02-07T20:39:16.469Z,24.13
2023-02-07T20:41:46.549Z,24.90
2023-02-07T20:44:27.018Z,28.70
2023-02-07T20:46:57.289Z,31.60
2023-02-07T20:49:28.911Z,28.05
2023-02-07T20:51:59.078Z,31.70
2023-02-07T20:54:30.067Z,38.45
2023-02-07T20:57:54.543Z,37.33
2023-02-07T21:00:22.988Z,32.83
2023-02-07T21:02:51.253Z,41.92
2023-02-07T21:05:19.498Z,27.43
2023-02-07T21:10:58.936Z,40.50
2023-02-07T21:13:33.530Z,58.38
2023-02-07T21:16:03.793Z,66.72
2023-02-07T21:18:33.174Z,62.10
2023-02-07T21:21:05.774Z,39.40
2023-02-07T21:23:34.460Z,39.42
2023-02-07T21:26:07.174Z,143.07
2023-02-07T21:28:36.248Z,97.82
2023-02-07T21:31:05.061Z,42.40
2023-02-07T21:33:33.611Z,81.28
2023-02-07T21:36:10.395Z,108.28
2023-02-07T21:38:40.332Z,82.72
2023-02-07T21:41:09.435Z,34.15
2023-02-07T21:43:40.689Z,41.47
2023-02-07T21:46:19.777Z,45.08
2023-02-07T21:48:51.045Z,50.65
2023-02-07T21:51:25.093Z,49.40
2023-02-07T21:53:55.324Z,42.72
2023-02-07T21:56:29.136Z,50.40
2023-02-07T21:59:00.709Z,42.88
2023-02-07T22:01:29.474Z,34.72
2023-02-07T22:04:00.656Z,30.20
2023-02-07T22:06:29.881Z,25.92
2023-02-07T22:09:05.348Z,25.27
2023-02-07T22:11:36.007Z,31.58
2023-02-07T22:14:05.304Z,28.23
2023-02-07T22:16:34.524Z,36.80
2023-02-07T22:19:04.813Z,39.38
2023-02-07T22:21:35.444Z,25.67
2023-02-07T22:24:05.733Z,26.38
2023-02-07T22:26:35.358Z,20.50
2023-02-07T22:29:05.241Z,22.60
2023-02-07T22:31:36.076Z,21.20
2023-02-07T22:34:08.098Z,75.30
2023-02-07T22:36:38.141Z,41.45
2023-02-07T22:39:07.993Z,37.15
2023-02-07T22:41:36.530Z,28.67
2023-02-07T22:44:04.880Z,24.73
2023-02-07T22:46:33.195Z,29.27
2023-02-07T22:49:01.296Z,28.08
2023-02-07T22:51:32.825Z,39.92
2023-02-07T22:54:06.755Z,46.63
2023-02-07T22:56:37.115Z,40.05
2023-02-07T22:59:06.326Z,23.80
2023-02-07T23:01:37.537Z,26.85
2023-02-07T23:04:08.459Z,25.33
2023-02-07T23:06:37.690Z,29.48
2023-02-07T23:09:06.151Z,40.60
2023-02-07T23:11:34.480Z,36.83
2023-02-07T23:14:06.580Z,36.90
2023-02-07T23:16:34.842Z,42.15
2023-02-07T23:19:23.074Z,29.88
2023-02-07T23:21:58.944Z,38.38
2023-02-07T23:24:27.308Z,27.47
2023-02-07T23:26:55.229Z,25.58
2023-02-07T23:29:23.406Z,30.58
2023-02-07T23:31:51.194Z,29.85
2023-02-07T23:34:19.289Z,35.20
2023-02-07T23:36:47.404Z,38.50
2023-02-07T23:39:15.698Z,33.80
2023-02-07T23:41:43.516Z,43.10
2023-02-07T23:44:11.781Z,25.08
2023-02-07T23:46:39.650Z,32.05
2023-02-07T23:49:08.026Z,40.27
2023-02-07T23:51:38.800Z,40.85
2023-02-07T23:54:07.088Z,41.20
2023-02-07T23:56:34.805Z,46.40
2023-02-07T23:59:02.958Z,40.00
